createdAt,value
2022-07-25T00:01:49.855Z,25.30
2022-07-25T00:04:17.691Z,25.30
2022-07-25T00:06:46.066Z,25.30
2022-07-25T00:09:13.168Z,25.30
2022-07-25T00:11:40.117Z,25.30
2022-07-25T00:14:07.945Z,25.20
2022-07-25T00:16:35.196Z,25.20
2022-07-25T00:19:02.281Z,25.20
2022-07-25T00:21:29.399Z,25.20
2022-07-25T00:23:56.365Z,25.20
2022-07-25T00:26:23.370Z,25.10
2022-07-25T00:28:50.300Z,25.10
2022-07-25T00:31:17.250Z,25.10
2022-07-25T00:33:44.201Z,25.10
2022-07-25T00:36:11.268Z,25.10
2022-07-25T00:38:38.213Z,25.10
2022-07-25T00:41:05.365Z,25.00
2022-07-25T00:43:32.363Z,25.00
2022-07-25T00:45:59.944Z,25.00
2022-07-25T00:48:28.514Z,25.00
2022-07-25T00:50:56.486Z,25.00
2022-07-25T00:53:24.019Z,25.00
2022-07-25T00:55:51.502Z,25.00
2022-07-25T00:58:18.963Z,24.90
2022-07-25T01:00:46.773Z,24.90
2022-07-25T01:03:13.884Z,24.90
2022-07-25T01:05:41.091Z,24.90
2022-07-25T01:08:08.898Z,24.90
2022-07-25T01:10:36.386Z,24.90
2022-07-25T01:13:03.993Z,24.90
2022-07-25T01:15:31.174Z,24.90
2022-07-25T01:17:58.146Z,24.80
2022-07-25T01:20:28.447Z,24.80
2022-07-25T01:22:55.679Z,24.80
2022-07-25T01:25:23.178Z,24.70
2022-07-25T01:27:55.453Z,24.70
2022-07-25T01:30:24.442Z,24.70
2022-07-25T01:32:52.197Z,24.70
2022-07-25T01:35:19.849Z,24.70
2022-07-25T01:37:46.959Z,24.70
2022-07-25T01:40:14.946Z,24.60
2022-07-25T01:42:43.003Z,24.50
2022-07-25T01:45:11.054Z,24.50
2022-07-25T01:47:38.469Z,24.40
2022-07-25T01:50:06.461Z,24.40
2022-07-25T01:52:33.575Z,24.30
2022-07-25T01:55:00.546Z,24.30
2022-07-25T01:57:31.120Z,24.30
2022-07-25T01:59:59.817Z,24.30
2022-07-25T02:02:27.045Z,24.30
2022-07-25T02:04:54.508Z,24.20
2022-07-25T02:07:21.475Z,24.20
2022-07-25T02:09:50.149Z,24.20
2022-07-25T02:12:20.325Z,24.10
2022-07-25T02:14:47.259Z,24.10
2022-07-25T02:17:14.298Z,24.00
2022-07-25T02:19:41.345Z,24.10
2022-07-25T02:22:08.618Z,24.00
2022-07-25T02:24:37.199Z,24.00
2022-07-25T02:27:05.108Z,24.00
2022-07-25T02:29:32.474Z,24.00
2022-07-25T02:31:59.374Z,23.90
2022-07-25T02:34:26.525Z,23.90
2022-07-25T02:36:53.642Z,23.80
2022-07-25T02:39:21.396Z,23.80
2022-07-25T02:41:48.303Z,23.70
2022-07-25T02:44:15.221Z,23.60
2022-07-25T02:46:42.229Z,23.60
2022-07-25T02:49:09.250Z,23.50
2022-07-25T02:51:36.150Z,23.50
2022-07-25T02:54:03.137Z,23.40
2022-07-25T02:56:32.052Z,23.40
2022-07-25T02:58:59.434Z,23.40
2022-07-25T03:01:27.071Z,23.40
2022-07-25T03:03:54.166Z,23.40
2022-07-25T03:06:21.121Z,23.30
2022-07-25T03:08:48.079Z,23.30
2022-07-25T03:11:16.716Z,23.30
2022-07-25T03:13:43.703Z,23.30
2022-07-25T03:16:10.872Z,23.30
2022-07-25T03:18:37.929Z,23.30
2022-07-25T03:21:05.315Z,23.20
2022-07-25T03:23:32.313Z,23.20
2022-07-25T03:25:59.283Z,23.10
2022-07-25T03:28:26.204Z,23.10
2022-07-25T03:30:53.499Z,23.10
2022-07-25T03:33:20.641Z,23.10
2022-07-25T03:35:47.625Z,23.10
2022-07-25T03:38:14.661Z,23.10
2022-07-25T03:40:41.634Z,23.00
2022-07-25T03:43:08.671Z,23.00
2022-07-25T03:45:35.734Z,23.00
2022-07-25T03:48:02.745Z,23.00
2022-07-25T03:50:29.880Z,22.90
2022-07-25T03:52:56.948Z,22.90
2022-07-25T03:55:23.946Z,22.90
2022-07-25T03:57:50.948Z,22.90
2022-07-25T04:00:18.353Z,22.90
2022-07-25T04:02:45.415Z,22.90
2022-07-25T04:05:12.462Z,22.80
2022-07-25T04:07:39.717Z,22.80
2022-07-25T04:10:08.097Z,22.80
2022-07-25T04:12:35.054Z,22.80
2022-07-25T04:15:02.092Z,22.80
2022-07-25T04:17:29.088Z,22.80
2022-07-25T04:19:56.233Z,22.80
2022-07-25T04:22:23.653Z,22.80
2022-07-25T04:24:50.608Z,22.80
2022-07-25T04:27:17.553Z,22.70
2022-07-25T04:29:44.471Z,22.70
2022-07-25T04:32:11.590Z,22.70
2022-07-25T04:34:38.596Z,22.70
2022-07-25T04:37:05.490Z,22.70
2022-07-25T04:39:32.444Z,22.80
2022-07-25T04:41:59.500Z,22.70
2022-07-25T04:44:26.477Z,22.80
2022-07-25T04:46:53.391Z,22.80
2022-07-25T04:49:20.444Z,22.80
2022-07-25T04:51:48.531Z,22.80
2022-07-25T04:54:15.464Z,22.80
2022-07-25T04:56:42.383Z,22.80
2022-07-25T04:59:09.300Z,22.80
2022-07-25T05:01:36.260Z,22.80
2022-07-25T05:04:03.606Z,22.80
2022-07-25T05:06:31.172Z,22.80
2022-07-25T05:08:58.139Z,22.80
2022-07-25T05:11:25.419Z,22.80
2022-07-25T05:13:52.348Z,22.80
2022-07-25T05:16:19.381Z,22.80
2022-07-25T05:18:46.485Z,22.80
2022-07-25T05:21:14.171Z,22.90
2022-07-25T05:23:41.355Z,22.80
2022-07-25T05:26:08.334Z,22.90
2022-07-25T05:28:35.386Z,23.00
2022-07-25T05:31:02.472Z,23.00
2022-07-25T05:33:29.746Z,23.10
2022-07-25T05:35:56.792Z,23.10
2022-07-25T05:38:23.712Z,23.10
2022-07-25T05:40:52.398Z,23.20
2022-07-25T05:43:19.738Z,23.20
2022-07-25T05:45:47.539Z,23.20
2022-07-25T05:48:15.162Z,23.30
2022-07-25T05:50:42.126Z,23.40
2022-07-25T05:53:09.181Z,23.40
2022-07-25T05:55:36.110Z,23.50
2022-07-25T05:58:09.530Z,23.60
2022-07-25T06:00:37.115Z,23.60
2022-07-25T06:03:04.508Z,23.70
2022-07-25T06:05:32.103Z,23.80
2022-07-25T06:07:59.026Z,23.90
2022-07-25T06:10:26.075Z,24.00
2022-07-25T06:12:53.048Z,24.10
2022-07-25T06:15:22.961Z,24.20
2022-07-25T06:17:54.064Z,24.30
2022-07-25T06:20:21.232Z,24.40
2022-07-25T06:22:48.241Z,24.50
2022-07-25T06:25:15.302Z,24.60
2022-07-25T06:27:42.705Z,24.80
2022-07-25T06:30:19.166Z,24.90
2022-07-25T06:32:48.201Z,25.00
2022-07-25T06:35:15.491Z,25.20
2022-07-25T06:37:42.558Z,25.30
2022-07-25T06:40:10.268Z,25.40
2022-07-25T06:42:41.716Z,25.60
2022-07-25T06:45:10.923Z,25.80
2022-07-25T06:47:38.898Z,25.90
2022-07-25T06:50:07.529Z,26.10
2022-07-25T06:52:34.996Z,26.30
2022-07-25T06:55:03.343Z,26.50
2022-07-25T06:57:30.260Z,26.60
2022-07-25T06:59:57.397Z,26.80
2022-07-25T07:02:24.463Z,27.00
2022-07-25T07:04:51.795Z,27.20
2022-07-25T07:07:18.689Z,27.50
2022-07-25T07:09:45.810Z,27.70
2022-07-25T07:12:12.743Z,27.90
2022-07-25T07:14:39.817Z,28.10
2022-07-25T07:17:06.743Z,28.30
2022-07-25T07:19:33.707Z,28.50
2022-07-25T07:22:00.925Z,28.70
2022-07-25T07:24:27.994Z,28.90
2022-07-25T07:26:55.019Z,29.20
2022-07-25T07:29:22.160Z,29.40
2022-07-25T07:31:49.235Z,29.70
2022-07-25T07:34:16.733Z,30.00
2022-07-25T07:36:44.013Z,30.30
2022-07-25T07:39:11.458Z,30.60
2022-07-25T07:41:38.541Z,30.90
2022-07-25T07:44:06.201Z,31.20
2022-07-25T07:46:33.149Z,31.50
2022-07-25T07:49:00.251Z,31.90
2022-07-25T07:51:27.286Z,32.20
2022-07-25T07:54:12.919Z,32.40
2022-07-25T07:56:39.971Z,32.80
2022-07-25T07:59:07.280Z,33.00
2022-07-25T08:01:34.996Z,33.30
2022-07-25T08:04:02.331Z,33.70
2022-07-25T08:06:29.287Z,34.10
2022-07-25T08:08:56.320Z,34.50
2022-07-25T08:11:23.312Z,34.90
2022-07-25T08:13:50.239Z,35.20
2022-07-25T08:16:17.354Z,35.30
2022-07-25T08:18:44.371Z,35.70
2022-07-25T08:21:11.870Z,36.00
2022-07-25T08:23:39.098Z,36.40
2022-07-25T08:26:06.935Z,36.80
2022-07-25T08:28:33.991Z,36.90
2022-07-25T08:31:01.093Z,37.20
2022-07-25T08:33:28.448Z,37.30
2022-07-25T08:35:56.502Z,37.50
2022-07-25T08:38:25.366Z,37.70
2022-07-25T08:40:54.020Z,38.00
2022-07-25T08:43:21.252Z,37.90
2022-07-25T08:45:55.580Z,38.10
2022-07-25T08:48:26.860Z,38.20
2022-07-25T08:50:57.142Z,38.30
2022-07-25T08:53:34.154Z,38.50
2022-07-25T08:56:10.383Z,38.80
2022-07-25T08:58:40.037Z,39.10
2022-07-25T09:01:08.064Z,39.70
2022-07-25T09:03:36.374Z,40.00
2022-07-25T09:06:17.738Z,40.10
2022-07-25T09:09:10.983Z,40.20
2022-07-25T09:11:38.564Z,40.50
2022-07-25T09:14:08.599Z,40.70
2022-07-25T09:16:41.926Z,41.00
2022-07-25T09:19:20.606Z,41.30
2022-07-25T09:22:10.309Z,41.50
2022-07-25T09:24:44.393Z,41.60
2022-07-25T09:27:12.784Z,41.80
2022-07-25T09:29:42.624Z,42.00
2022-07-25T09:32:20.101Z,42.20
2022-07-25T09:34:48.829Z,42.40
2022-07-25T09:37:18.214Z,42.50
2022-07-25T09:39:50.343Z,42.80
2022-07-25T09:42:25.994Z,43.00
2022-07-25T09:45:06.735Z,43.20
2022-07-25T09:47:35.956Z,43.30
2022-07-25T09:50:04.315Z,43.40
2022-07-25T09:52:31.824Z,43.70
2022-07-25T09:55:01.100Z,43.70
2022-07-25T09:57:28.134Z,43.90
2022-07-25T09:59:56.148Z,44.00
2022-07-25T10:02:41.311Z,44.20
2022-07-25T10:05:15.994Z,44.30
2022-07-25T10:07:47.264Z,44.40
2022-07-25T10:10:37.806Z,44.40
2022-07-25T10:13:11.199Z,44.60
2022-07-25T10:15:45.022Z,44.80
2022-07-25T10:18:13.391Z,45.00
2022-07-25T10:20:40.434Z,45.20
2022-07-25T10:23:28.178Z,45.10
2022-07-25T10:26:13.925Z,45.20
2022-07-25T10:28:49.050Z,45.40
2022-07-25T10:31:33.883Z,45.80
2022-07-25T10:34:06.754Z,46.00
2022-07-25T10:36:56.117Z,45.90
2022-07-25T10:39:24.085Z,45.90
2022-07-25T10:41:56.086Z,45.80
2022-07-25T10:44:23.188Z,46.00
2022-07-25T10:46:50.423Z,46.00
2022-07-25T10:49:31.176Z,45.60
2022-07-25T10:52:04.287Z,45.70
2022-07-25T10:54:36.884Z,46.00
2022-07-25T10:57:15.387Z,46.30
2022-07-25T10:59:42.441Z,46.40
2022-07-25T11:02:17.211Z,46.30
2022-07-25T11:05:05.083Z,46.40
2022-07-25T11:07:36.087Z,46.10
2022-07-25T11:10:05.794Z,45.20
2022-07-25T11:12:33.613Z,44.70
2022-07-25T11:15:06.356Z,44.80
2022-07-25T11:17:34.801Z,44.60
2022-07-25T11:20:01.790Z,44.80
2022-07-25T11:22:30.608Z,45.10
2022-07-25T11:24:58.337Z,45.20
2022-07-25T11:27:27.634Z,44.50
2022-07-25T11:30:08.657Z,43.70
2022-07-25T11:32:44.205Z,43.00
2022-07-25T11:35:13.137Z,42.30
2022-07-25T11:37:43.434Z,41.90
2022-07-25T11:40:11.451Z,41.60
2022-07-25T11:42:44.309Z,41.30
2022-07-25T11:45:22.790Z,40.90
2022-07-25T11:48:04.723Z,40.60
2022-07-25T11:50:33.621Z,40.80
2022-07-25T11:53:02.960Z,41.30
2022-07-25T11:55:32.257Z,42.20
2022-07-25T11:58:01.655Z,43.10
2022-07-25T12:00:29.754Z,43.60
2022-07-25T12:03:14.236Z,43.70
2022-07-25T12:05:46.236Z,43.80
2022-07-25T12:08:14.574Z,43.70
2022-07-25T12:10:44.038Z,43.40
2022-07-25T12:13:25.713Z,42.90
2022-07-25T12:15:53.083Z,42.40
2022-07-25T12:18:20.039Z,41.90
2022-07-25T12:20:47.143Z,42.00
2022-07-25T12:23:14.676Z,42.30
2022-07-25T12:25:43.939Z,42.40
2022-07-25T12:28:11.605Z,42.10
2022-07-25T12:30:39.955Z,42.00
2022-07-25T12:33:07.630Z,42.10
2022-07-25T12:35:37.249Z,42.10
2022-07-25T12:38:05.190Z,42.10
2022-07-25T12:40:32.444Z,42.10
2022-07-25T12:43:00.050Z,41.90
2022-07-25T12:45:27.956Z,41.60
2022-07-25T12:47:55.305Z,41.40
2022-07-25T12:50:25.698Z,41.30
2022-07-25T12:52:52.734Z,41.20
2022-07-25T12:55:20.424Z,40.90
2022-07-25T12:57:47.629Z,40.90
2022-07-25T13:00:17.130Z,41.30
2022-07-25T13:02:44.574Z,41.80
2022-07-25T13:05:11.995Z,41.60
2022-07-25T13:07:39.018Z,41.30
2022-07-25T13:10:06.914Z,40.90
2022-07-25T13:12:33.966Z,40.80
2022-07-25T13:15:01.693Z,40.60
2022-07-25T13:17:28.809Z,40.60
2022-07-25T13:19:57.063Z,40.70
2022-07-25T13:22:25.596Z,40.80
2022-07-25T13:24:53.549Z,41.50
2022-07-25T13:27:22.047Z,42.60
2022-07-25T13:29:54.807Z,43.40
2022-07-25T13:32:22.512Z,43.80
2022-07-25T13:34:50.029Z,44.10
2022-07-25T13:37:17.014Z,44.30
2022-07-25T13:39:44.102Z,44.40
2022-07-25T13:42:11.270Z,44.80
2022-07-25T13:44:38.409Z,44.60
2022-07-25T13:47:05.643Z,44.60
2022-07-25T13:49:32.715Z,44.60
2022-07-25T13:51:59.678Z,44.20
2022-07-25T13:54:26.600Z,43.60
2022-07-25T13:56:53.715Z,42.90
2022-07-25T13:59:21.900Z,42.40
2022-07-25T14:01:50.383Z,42.10
2022-07-25T14:04:17.786Z,41.70
2022-07-25T14:06:45.023Z,41.20
2022-07-25T14:09:12.079Z,40.90
2022-07-25T14:11:39.124Z,41.30
2022-07-25T14:14:06.064Z,42.00
2022-07-25T14:16:34.423Z,42.70
2022-07-25T14:19:02.384Z,43.00
2022-07-25T14:21:30.123Z,42.60
2022-07-25T14:23:57.445Z,42.00
2022-07-25T14:26:24.394Z,41.40
2022-07-25T14:28:51.534Z,40.90
2022-07-25T14:31:18.649Z,40.50
2022-07-25T14:33:45.691Z,40.00
2022-07-25T14:36:13.315Z,39.70
2022-07-25T14:38:40.338Z,39.40
2022-07-25T14:41:12.535Z,39.10
2022-07-25T14:43:40.731Z,38.90
2022-07-25T14:46:09.027Z,38.60
2022-07-25T14:48:37.460Z,38.60
2022-07-25T14:51:05.709Z,38.90
2022-07-25T14:53:33.095Z,39.50
2022-07-25T14:56:03.139Z,39.90
2022-07-25T14:58:30.566Z,39.90
2022-07-25T15:00:57.549Z,39.70
2022-07-25T15:03:24.809Z,39.50
2022-07-25T15:05:51.964Z,39.30
2022-07-25T15:08:18.907Z,39.30
2022-07-25T15:10:45.934Z,39.60
2022-07-25T15:13:30.556Z,40.00
2022-07-25T15:15:59.291Z,40.40
2022-07-25T15:18:26.328Z,40.60
2022-07-25T15:20:53.503Z,40.60
2022-07-25T15:23:21.098Z,40.90
2022-07-25T15:26:04.625Z,41.20
2022-07-25T15:28:37.177Z,41.50
2022-07-25T15:31:05.941Z,41.60
2022-07-25T15:33:33.521Z,41.60
2022-07-25T15:36:00.578Z,41.30
2022-07-25T15:38:29.016Z,40.80
2022-07-25T15:40:57.216Z,40.40
2022-07-25T15:43:24.802Z,40.00
2022-07-25T15:45:51.951Z,39.70
2022-07-25T15:48:19.270Z,39.40
2022-07-25T15:50:48.141Z,39.20
2022-07-25T15:53:15.800Z,38.90
2022-07-25T15:55:43.193Z,38.80
2022-07-25T15:58:11.153Z,38.70
2022-07-25T16:00:40.395Z,38.60
2022-07-25T16:03:07.890Z,38.50
2022-07-25T16:05:35.545Z,38.40
2022-07-25T16:08:03.046Z,38.30
2022-07-25T16:10:34.085Z,38.10
2022-07-25T16:13:01.253Z,37.80
2022-07-25T16:18:28.995Z,37.30
2022-07-25T16:21:04.337Z,37.00
2022-07-25T16:23:36.204Z,36.70
2022-07-25T16:26:06.097Z,36.50
2022-07-25T16:28:33.704Z,36.50
2022-07-25T16:31:00.724Z,36.30
2022-07-25T16:33:27.753Z,36.30
2022-07-25T16:35:54.772Z,36.30
2022-07-25T16:38:22.308Z,36.30
2022-07-25T16:41:07.441Z,36.20
2022-07-25T16:43:59.410Z,36.20
2022-07-25T16:46:29.413Z,36.10
2022-07-25T16:48:56.750Z,36.10
2022-07-25T16:51:23.868Z,36.10
2022-07-25T16:53:50.816Z,36.00
2022-07-25T16:56:17.884Z,35.90
2022-07-25T16:58:46.583Z,35.70
2022-07-25T17:01:14.919Z,35.50
2022-07-25T17:03:45.111Z,35.50
2022-07-25T17:06:14.728Z,35.40
2022-07-25T17:08:48.105Z,35.40
2022-07-25T17:11:41.459Z,35.40
2022-07-25T17:14:11.258Z,35.30
2022-07-25T17:16:49.255Z,35.20
2022-07-25T17:19:47.185Z,35.20
2022-07-25T17:22:52.850Z,35.10
2022-07-25T17:26:05.064Z,35.00
2022-07-25T17:35:34.457Z,34.70
2022-07-25T17:38:10.204Z,34.60
2022-07-25T17:40:46.069Z,34.50
2022-07-25T17:43:20.371Z,34.40
2022-07-25T17:46:16.359Z,34.30
2022-07-25T17:48:54.207Z,34.30
2022-07-25T17:51:46.397Z,34.10
2022-07-25T17:54:16.039Z,34.10
2022-07-25T17:57:32.164Z,33.90
2022-07-25T18:04:59.518Z,33.80
2022-07-25T18:11:43.879Z,33.60
2022-07-25T18:14:11.182Z,33.60
2022-07-25T18:16:41.445Z,33.60
2022-07-25T18:19:08.725Z,33.50
2022-07-25T18:21:35.658Z,33.40
2022-07-25T18:24:03.121Z,33.30
2022-07-25T18:26:30.133Z,33.20
2022-07-25T18:28:58.110Z,33.10
2022-07-25T18:31:25.329Z,33.00
2022-07-25T18:33:52.286Z,32.90
2022-07-25T18:36:19.453Z,32.80
2022-07-25T18:38:46.703Z,32.70
2022-07-25T18:41:28.696Z,32.60
2022-07-25T18:43:56.429Z,32.60
2022-07-25T18:46:24.160Z,32.50
2022-07-25T18:48:54.573Z,32.50
2022-07-25T18:51:24.928Z,32.40
2022-07-25T18:53:52.015Z,32.40
2022-07-25T18:56:19.372Z,32.30
2022-07-25T18:58:46.584Z,32.20
2022-07-25T19:01:13.654Z,32.20
2022-07-25T19:03:40.807Z,32.10
2022-07-25T19:06:09.974Z,32.10
2022-07-25T19:08:37.232Z,32.00
2022-07-25T19:11:04.332Z,31.90
2022-07-25T19:16:19.168Z,31.70
2022-07-25T19:18:46.761Z,31.60
2022-07-25T19:21:14.024Z,31.50
2022-07-25T19:23:41.048Z,31.40
2022-07-25T19:26:08.330Z,31.30
2022-07-25T19:28:36.053Z,31.20
2022-07-25T19:31:03.386Z,31.20
2022-07-25T19:33:34.781Z,31.10
2022-07-25T19:36:06.053Z,31.10
2022-07-25T19:38:33.423Z,31.00
2022-07-25T19:41:00.894Z,30.90
2022-07-25T19:43:28.129Z,30.70
2022-07-25T19:45:55.232Z,30.70
2022-07-25T19:48:24.962Z,30.60
2022-07-25T19:50:52.542Z,30.40
2022-07-25T19:53:19.673Z,30.30
2022-07-25T19:55:46.729Z,30.30
2022-07-25T19:58:13.881Z,30.20
2022-07-25T20:00:41.029Z,30.20
2022-07-25T20:03:08.058Z,30.10
2022-07-25T20:05:35.212Z,30.00
2022-07-25T20:08:02.182Z,30.00
2022-07-25T20:10:29.336Z,29.90
2022-07-25T20:13:00.951Z,29.90
2022-07-25T20:15:28.822Z,29.80
2022-07-25T20:17:56.958Z,29.60
2022-07-25T20:20:34.833Z,29.60
2022-07-25T20:23:02.018Z,29.50
2022-07-25T20:25:29.048Z,29.50
2022-07-25T20:27:55.996Z,29.50
2022-07-25T20:30:23.786Z,29.40
2022-07-25T20:32:52.695Z,29.40
2022-07-25T20:35:19.896Z,29.40
2022-07-25T20:37:46.886Z,29.30
2022-07-25T20:40:15.983Z,29.20
2022-07-25T20:42:43.314Z,29.20
2022-07-25T20:45:10.681Z,29.20
2022-07-25T20:47:37.771Z,29.10
2022-07-25T20:50:05.066Z,29.10
2022-07-25T20:52:33.323Z,29.00
2022-07-25T20:55:00.440Z,29.00
2022-07-25T20:57:27.330Z,29.00
2022-07-25T20:59:54.283Z,29.00
2022-07-25T21:02:21.338Z,29.00
2022-07-25T21:04:48.723Z,29.00
2022-07-25T21:07:19.223Z,28.90
2022-07-25T21:09:46.182Z,28.90
2022-07-25T21:12:13.276Z,28.90
2022-07-25T21:14:40.186Z,28.90
2022-07-25T21:17:08.457Z,28.90
2022-07-25T21:19:35.402Z,28.90
2022-07-25T21:22:03.015Z,28.90
2022-07-25T21:24:30.279Z,28.90
2022-07-25T21:26:57.262Z,28.90
2022-07-25T21:29:24.185Z,28.80
2022-07-25T21:31:51.372Z,28.80
2022-07-25T21:34:21.316Z,28.70
2022-07-25T21:36:48.421Z,28.60
2022-07-25T21:39:16.554Z,28.50
2022-07-25T21:41:44.898Z,28.50
2022-07-25T21:44:13.552Z,28.50
2022-07-25T21:46:40.621Z,28.50
2022-07-25T21:49:41.125Z,28.40
2022-07-25T21:52:13.787Z,28.40
2022-07-25T21:54:42.182Z,28.40
2022-07-25T21:57:13.388Z,28.40
2022-07-25T21:59:45.338Z,28.40
2022-07-25T22:02:13.216Z,28.30
2022-07-25T22:04:40.608Z,28.30
2022-07-25T22:07:07.574Z,28.30
2022-07-25T22:09:34.564Z,28.20
2022-07-25T22:12:01.948Z,28.20
2022-07-25T22:14:28.927Z,28.20
2022-07-25T22:16:56.142Z,28.10
2022-07-25T22:19:23.166Z,28.00
2022-07-25T22:21:50.814Z,27.90
2022-07-25T22:24:18.152Z,27.80
2022-07-25T22:26:45.307Z,27.80
2022-07-25T22:29:12.579Z,27.70
2022-07-25T22:31:39.740Z,27.70
2022-07-25T22:34:06.904Z,27.60
2022-07-25T22:36:33.965Z,27.60
2022-07-25T22:39:00.905Z,27.50
2022-07-25T22:41:28.021Z,27.50
2022-07-25T22:43:59.128Z,27.40
2022-07-25T22:46:31.261Z,27.30
2022-07-25T22:48:59.387Z,27.30
2022-07-25T22:51:27.786Z,27.20
2022-07-25T22:53:55.614Z,27.20
2022-07-25T22:56:23.215Z,27.10
2022-07-25T22:58:50.180Z,27.00
2022-07-25T23:01:18.076Z,27.00
2022-07-25T23:03:45.751Z,27.00
2022-07-25T23:06:13.130Z,26.90
2022-07-25T23:08:40.009Z,26.80
2022-07-25T23:11:07.208Z,26.80
2022-07-25T23:13:35.716Z,26.70
2022-07-25T23:16:04.003Z,26.70
2022-07-25T23:18:31.835Z,26.70
2022-07-25T23:20:59.000Z,26.60
2022-07-25T23:23:26.081Z,26.60
2022-07-25T23:25:53.058Z,26.60
2022-07-25T23:28:20.084Z,26.60
2022-07-25T23:30:47.025Z,26.60
2022-07-25T23:33:13.959Z,26.60
2022-07-25T23:35:42.329Z,26.60
2022-07-25T23:38:10.869Z,26.60
2022-07-25T23:40:37.879Z,26.50
2022-07-25T23:43:05.042Z,26.50
2022-07-25T23:45:32.108Z,26.50
2022-07-25T23:47:59.075Z,26.50
2022-07-25T23:50:25.998Z,26.50
2022-07-25T23:52:53.544Z,26.50
2022-07-25T23:55:20.600Z,26.50
2022-07-25T23:57:47.477Z,26.50
